Track Тулупова Ирина

Time Latitude Longitude Accuracy (66% radius in meters) Altitude (meters) Speed (km/hour) Bearing (degrees) Battery (%) GPS flag
08:36:48 60.370932 29.556283 6 81 0 3.2050879001617 84 1 delete
08:36:36 60.370928 29.556280 8 75 0 343.95977783203 84 1 delete
08:36:24 60.370919 29.556310 8 86 0 166.55403137207 84 1 delete
08:36:11 60.370911 29.556317 6 88 0.50075852870941 202.9328918457 84 1 delete
08:35:59 60.370922 29.556292 4 93 0 196.7057800293 84 1 delete
08:35:56 60.370936 29.556335 6 89 0 196.7057800293 84 1 delete
08:35:47 60.370980 29.556342 6 72 0 196.7057800293 84 1 delete
08:35:43 60.370981 29.556343 6 74 0 196.7057800293 84 1 delete
08:35:34 60.370988 29.556334 6 73 0 196.7057800293 84 1 delete
08:35:21 60.371002 29.556342 4 74 0 196.7057800293 84 1 delete
08:35:08 60.371013 29.556379 6 76 0 196.7057800293 84 1 delete
08:34:55 60.371019 29.556403 6 71 0 196.7057800293 84 1 delete
08:34:50 60.371012 29.556410 6 69 0 196.7057800293 84 1 delete
08:34:42 60.370982 29.556410 8 55 0 196.7057800293 84 1 delete
08:34:35 60.370965 29.556379 6 52 0 196.7057800293 84 1 delete
08:34:30 60.370962 29.556341 6 58 0 196.7057800293 84 1 delete
08:34:17 60.370982 29.556258 4 86 0 196.7057800293 84 1 delete
08:34:05 60.370983 29.556268 4 90 0 196.7057800293 84 1 delete
08:33:55 60.370990 29.556301 4 80 0 196.7057800293 84 1 delete
08:33:53 60.370982 29.556300 4 82 0 196.7057800293 84 1 delete
08:33:41 60.370954 29.556298 6 78 0 196.7057800293 84 1 delete
08:33:28 60.370960 29.556280 6 78 0 196.7057800293 84 1 delete
08:33:16 60.370938 29.556228 6 83 0 350.91329956055 84 1 delete
08:33:04 60.370940 29.556231 4 85 0 350.91329956055 84 1 delete
08:32:57 60.370950 29.556256 4 85 0 350.91329956055 84 1 delete
08:32:52 60.370974 29.556313 6 80 0 350.91329956055 84 1 delete
08:32:39 60.370984 29.556332 6 70 0 350.91329956055 84 1 delete
08:32:27 60.370986 29.556322 6 70 0 350.91329956055 84 1 delete
08:32:15 60.370978 29.556299 6 78 0 327.47265625 84 1 delete
08:32:03 60.370981 29.556349 6 79 0 22.914396286011 84 1 delete
08:32:01 60.370976 29.556341 6 79 0 22.914396286011 84 1 delete
08:31:51 60.370966 29.556316 4 78 0 22.914396286011 84 1 delete
08:31:38 60.370963 29.556290 4 80 0 22.914396286011 84 1 delete
08:31:26 60.370950 29.556271 6 79 0 22.914396286011 84 1 delete
08:31:14 60.370921 29.556314 4 78 0 22.914396286011 84 1 delete
08:31:00 60.370929 29.556305 6 82 0 22.914396286011 84 1 delete
08:30:48 60.370964 29.556319 6 76 0 22.914396286011 84 1 delete
08:30:35 60.370955 29.556300 4 74 0 22.914396286011 84 1 delete
08:30:23 60.370953 29.556344 6 60 0 22.914396286011 84 1 delete
08:30:15 60.370932 29.556319 6 67 0 22.914396286011 84 1 delete
08:30:11 60.370924 29.556318 6 70 0 22.914396286011 84 1 delete
08:29:58 60.370887 29.556198 6 82 0 22.914396286011 84 1 delete
08:29:45 60.370883 29.556222 6 81 0 22.914396286011 84 1 delete
08:29:32 60.370875 29.556293 6 62 0 22.914396286011 84 1 delete
08:29:29 60.370888 29.556289 12 61 0 22.914396286011 84 1 delete
08:29:25 60.370936 29.556289 8 69 0 22.914396286011 84 1 delete
08:29:19 60.370954 29.556313 8 76 0 22.914396286011 84 1 delete
08:29:07 60.370961 29.556326 6 70 0 85.492248535156 84 1 delete
08:28:54 60.370970 29.556302 4 81 0 85.492248535156 84 1 delete
08:28:42 60.370981 29.556357 4 82 0 85.492248535156 84 1 delete